createdAt,value
2018-04-18T00:02:24.726Z,24.13
2018-04-18T00:04:52.862Z,19.57
2018-04-18T00:07:21.006Z,20.73
2018-04-18T00:09:49.132Z,23.23
2018-04-18T00:12:17.300Z,20.27
2018-04-18T00:14:45.448Z,23.10
2018-04-18T00:17:13.578Z,19.83
2018-04-18T00:19:41.725Z,19.13
2018-04-18T00:22:13.549Z,21.07
2018-04-18T00:24:41.693Z,17.93
2018-04-18T00:27:10.074Z,19.20
2018-04-18T00:29:38.221Z,23.07
2018-04-18T00:32:20.643Z,19.97
2018-04-18T00:34:48.796Z,19.27
2018-04-18T00:37:16.922Z,19.00
2018-04-18T00:39:45.049Z,28.07
2018-04-18T00:42:20.672Z,19.93
2018-04-18T00:44:48.828Z,23.03
2018-04-18T00:47:16.945Z,21.33
2018-04-18T00:49:45.101Z,17.30
2018-04-18T00:52:16.906Z,21.30
2018-04-18T00:54:45.058Z,23.57
2018-04-18T00:57:13.175Z,20.17
2018-04-18T00:59:47.068Z,19.73
2018-04-18T01:02:15.186Z,20.93
2018-04-18T01:04:43.342Z,19.80
2018-04-18T01:07:22.032Z,22.23
2018-04-18T01:09:50.171Z,19.77
2018-04-18T01:12:18.317Z,22.70
2018-04-18T01:14:46.504Z,24.10
2018-04-18T01:17:14.654Z,22.50
2018-04-18T01:19:42.761Z,20.63
2018-04-18T01:22:10.924Z,18.80
2018-04-18T01:24:39.041Z,22.13
2018-04-18T01:27:07.172Z,24.37
2018-04-18T01:29:38.550Z,22.27
2018-04-18T01:32:06.680Z,19.13
2018-04-18T01:34:34.829Z,19.93
2018-04-18T01:37:02.976Z,21.43
2018-04-18T01:39:31.122Z,27.10
2018-04-18T01:41:59.275Z,21.03
2018-04-18T01:44:27.439Z,21.03
2018-04-18T01:46:55.571Z,23.93
2018-04-18T01:49:31.581Z,23.73
2018-04-18T01:51:59.718Z,22.70
2018-04-18T01:54:27.844Z,20.30
2018-04-18T01:56:55.995Z,22.53
2018-04-18T01:59:24.184Z,23.80
2018-04-18T02:01:52.276Z,24.30
2018-04-18T02:04:20.584Z,24.20
2018-04-18T02:06:48.716Z,24.60
2018-04-18T02:09:16.836Z,30.20
2018-04-18T02:11:45.206Z,25.47
2018-04-18T02:14:17.556Z,24.90
2018-04-18T02:16:45.714Z,22.00
2018-04-18T02:19:13.856Z,23.13
2018-04-18T02:21:41.978Z,24.23
2018-04-18T02:24:11.998Z,22.63
2018-04-18T02:26:40.146Z,23.57
2018-04-18T02:29:08.276Z,24.50
2018-04-18T02:31:36.414Z,21.83
2018-04-18T02:34:04.560Z,22.63
2018-04-18T02:36:32.713Z,21.83
2018-04-18T02:39:00.828Z,24.97
2018-04-18T02:41:41.644Z,28.53
2018-04-18T02:44:09.783Z,24.13
2018-04-18T02:46:37.948Z,22.13
2018-04-18T02:49:06.089Z,24.03
2018-04-18T02:51:36.239Z,26.73
2018-04-18T02:54:04.378Z,21.80
2018-04-18T02:56:32.728Z,23.87
2018-04-18T02:59:00.856Z,21.13
2018-04-18T03:01:28.980Z,25.93
2018-04-18T03:03:57.116Z,23.53
2018-04-18T03:06:25.270Z,22.57
2018-04-18T03:08:53.417Z,22.90
2018-04-18T03:11:21.539Z,23.77
2018-04-18T03:13:49.702Z,22.40
2018-04-18T03:16:17.851Z,24.23
2018-04-18T03:18:45.992Z,26.03
2018-04-18T03:21:14.128Z,21.13
2018-04-18T03:24:01.222Z,26.07
2018-04-18T03:26:29.389Z,23.47
2018-04-18T03:28:57.534Z,20.43
2018-04-18T03:34:33.555Z,22.20
2018-04-18T03:37:01.714Z,22.60
2018-04-18T03:39:29.850Z,24.20
2018-04-18T03:42:04.096Z,21.90
2018-04-18T03:44:37.111Z,23.30
2018-04-18T03:47:05.268Z,22.77
2018-04-18T03:49:35.423Z,19.83
2018-04-18T03:52:08.102Z,19.77
2018-04-18T03:54:36.259Z,20.97
2018-04-18T03:57:04.378Z,24.40
2018-04-18T03:59:32.524Z,19.20
2018-04-18T04:02:00.653Z,19.90
2018-04-18T04:04:28.799Z,25.70
2018-04-18T04:06:58.897Z,25.57
2018-04-18T04:09:27.042Z,19.57
2018-04-18T04:12:09.179Z,20.07
2018-04-18T04:14:39.219Z,21.40
2018-04-18T04:17:19.071Z,21.40
2018-04-18T04:20:01.158Z,20.87
2018-04-18T04:22:46.853Z,18.50
2018-04-18T04:25:14.987Z,17.77
2018-04-18T04:27:43.946Z,21.43
2018-04-18T04:30:13.038Z,20.53
2018-04-18T04:32:42.074Z,17.67
2018-04-18T04:35:11.136Z,20.47
2018-04-18T04:37:49.940Z,22.57
2018-04-18T04:40:20.133Z,19.00
2018-04-18T04:42:48.280Z,18.23
2018-04-18T04:45:16.429Z,18.70
2018-04-18T04:47:50.913Z,21.07
2018-04-18T04:50:22.905Z,19.83
2018-04-18T04:52:51.040Z,17.77
2018-04-18T04:55:19.185Z,19.30
2018-04-18T04:57:47.324Z,20.97
2018-04-18T05:00:20.804Z,19.00
2018-04-18T05:02:48.950Z,19.90
2018-04-18T05:05:17.125Z,16.97
2018-04-18T05:07:45.263Z,16.43
2018-04-18T05:10:13.425Z,22.20
2018-04-18T05:12:41.612Z,20.27
2018-04-18T05:15:09.753Z,17.77
2018-04-18T05:17:41.690Z,19.53
2018-04-18T05:20:09.868Z,21.77
2018-04-18T05:22:38.027Z,22.77
2018-04-18T05:25:08.080Z,17.50
2018-04-18T05:27:36.220Z,18.57
2018-04-18T05:30:04.444Z,20.53
2018-04-18T05:32:40.466Z,16.70
2018-04-18T05:35:23.518Z,20.93
2018-04-18T05:37:51.696Z,21.70
2018-04-18T05:40:19.838Z,19.20
2018-04-18T05:42:47.970Z,21.50
2018-04-18T05:45:16.237Z,16.97
2018-04-18T05:47:44.303Z,18.60
2018-04-18T05:50:12.472Z,15.73
2018-04-18T05:52:40.623Z,15.50
2018-04-18T05:55:08.760Z,22.67
2018-04-18T05:57:36.907Z,18.80
2018-04-18T06:00:05.095Z,16.50
2018-04-18T06:02:33.183Z,20.13
2018-04-18T06:05:01.304Z,18.77
2018-04-18T06:07:29.461Z,18.57
2018-04-18T06:09:57.613Z,18.50
2018-04-18T06:12:25.728Z,21.57
2018-04-18T06:14:53.887Z,18.00
2018-04-18T06:17:25.083Z,19.07
2018-04-18T06:19:53.243Z,20.20
2018-04-18T06:22:24.330Z,18.00
2018-04-18T06:24:52.458Z,17.77
2018-04-18T06:27:20.622Z,17.93
2018-04-18T06:29:48.793Z,17.90
2018-04-18T06:32:16.941Z,17.17
2018-04-18T06:34:45.063Z,21.57
2018-04-18T06:37:12.511Z,18.67
2018-04-18T06:39:40.473Z,14.33
2018-04-18T06:42:08.603Z,16.93
2018-04-18T06:44:40.220Z,18.30
2018-04-18T06:47:08.370Z,17.63
2018-04-18T06:49:36.588Z,21.30
2018-04-18T06:52:04.740Z,15.83
2018-04-18T06:54:33.797Z,17.97
2018-04-18T06:57:01.946Z,17.90
2018-04-18T06:59:37.615Z,13.50
2018-04-18T07:02:05.743Z,18.40
2018-04-18T07:04:33.893Z,16.57
2018-04-18T07:07:02.030Z,15.93
2018-04-18T07:09:30.159Z,16.37
2018-04-18T07:11:58.286Z,15.83
2018-04-18T07:14:26.503Z,17.97
2018-04-18T07:16:54.610Z,16.90
2018-04-18T07:19:22.753Z,16.17
2018-04-18T07:21:50.883Z,17.07
2018-04-18T07:24:19.038Z,18.63
2018-04-18T07:26:47.171Z,17.23
2018-04-18T07:29:15.619Z,22.30
2018-04-18T07:31:43.755Z,16.57
2018-04-18T07:34:11.902Z,18.27
2018-04-18T07:36:40.073Z,18.63
2018-04-18T07:39:08.217Z,21.00
2018-04-18T07:41:36.329Z,15.07
2018-04-18T07:44:04.468Z,19.03
2018-04-18T07:46:32.621Z,15.20
2018-04-18T07:49:00.740Z,16.43
2018-04-18T07:51:28.865Z,13.37
2018-04-18T07:53:57.019Z,15.73
2018-04-18T07:56:25.168Z,18.97
2018-04-18T07:58:53.329Z,15.17
2018-04-18T08:01:21.465Z,14.90
2018-04-18T08:03:49.610Z,17.57
2018-04-18T08:06:17.762Z,17.37
2018-04-18T08:08:45.916Z,17.23
2018-04-18T08:11:14.053Z,16.70
2018-04-18T08:13:42.194Z,17.87
2018-04-18T08:16:10.328Z,14.27
2018-04-18T08:18:38.475Z,20.97
2018-04-18T08:21:06.616Z,17.53
2018-04-18T08:23:34.751Z,13.87
2018-04-18T08:26:02.905Z,15.70
2018-04-18T08:28:31.072Z,15.83
2018-04-18T08:30:59.206Z,13.17
2018-04-18T08:33:27.344Z,18.07
2018-04-18T08:35:55.483Z,20.10
2018-04-18T08:38:23.611Z,19.00
2018-04-18T08:40:51.734Z,16.43
2018-04-18T08:43:19.888Z,16.70
2018-04-18T08:45:48.004Z,13.93
2018-04-18T08:48:16.155Z,15.47
2018-04-18T08:50:44.304Z,17.17
2018-04-18T08:53:12.431Z,18.47
2018-04-18T08:55:40.554Z,13.63
2018-04-18T08:58:08.871Z,15.20
2018-04-18T09:00:37.049Z,14.67
2018-04-18T09:03:05.185Z,15.67
2018-04-18T09:05:33.596Z,21.63
2018-04-18T09:08:01.748Z,13.23
2018-04-18T09:10:29.899Z,16.17
2018-04-18T09:12:58.075Z,11.03
2018-04-18T09:15:26.223Z,12.07
2018-04-18T09:17:54.333Z,18.00
2018-04-18T09:20:22.484Z,18.80
2018-04-18T09:22:50.597Z,17.40
2018-04-18T09:25:18.729Z,13.90
2018-04-18T09:27:47.566Z,15.87
2018-04-18T09:30:15.699Z,15.07
2018-04-18T09:32:43.831Z,14.23
2018-04-18T09:35:11.993Z,18.67
2018-04-18T09:37:40.137Z,15.40
2018-04-18T09:40:08.287Z,12.20
2018-04-18T09:42:36.665Z,11.47
2018-04-18T09:45:04.800Z,11.47
2018-04-18T09:47:32.925Z,8.87
2018-04-18T09:50:01.092Z,15.70
2018-04-18T09:52:29.258Z,14.07
2018-04-18T09:54:57.379Z,11.60
2018-04-18T09:57:25.513Z,10.97
2018-04-18T09:59:53.673Z,12.57
2018-04-18T10:02:27.372Z,9.80
2018-04-18T10:04:55.492Z,18.50
2018-04-18T10:07:23.605Z,10.77
2018-04-18T10:09:51.736Z,10.53
2018-04-18T10:12:19.888Z,10.70
2018-04-18T10:14:48.029Z,11.67
2018-04-18T10:17:16.179Z,11.73
2018-04-18T10:19:44.342Z,9.07
2018-04-18T10:22:12.465Z,13.90
2018-04-18T10:24:40.640Z,16.27
2018-04-18T10:27:08.762Z,17.10
2018-04-18T10:29:36.904Z,17.90
2018-04-18T10:32:05.031Z,19.40
2018-04-18T10:34:33.157Z,15.30
2018-04-18T10:37:01.310Z,20.87
2018-04-18T10:39:29.456Z,12.03
2018-04-18T10:41:57.597Z,12.10
2018-04-18T10:44:25.722Z,15.53
2018-04-18T10:46:53.868Z,12.13
2018-04-18T10:49:22.017Z,14.53
2018-04-18T10:51:50.154Z,13.77
2018-04-18T10:54:18.309Z,14.07
2018-04-18T10:56:46.420Z,14.80
2018-04-18T10:59:14.558Z,8.00
2018-04-18T11:01:42.703Z,9.87
2018-04-18T11:04:10.852Z,11.10
2018-04-18T11:06:38.976Z,12.60
2018-04-18T11:09:07.119Z,14.83
2018-04-18T11:11:35.257Z,17.37
2018-04-18T11:14:03.365Z,14.93
2018-04-18T11:16:31.530Z,14.90
2018-04-18T11:18:59.659Z,16.13
2018-04-18T11:21:27.766Z,10.63
2018-04-18T11:23:55.933Z,11.10
2018-04-18T11:26:24.064Z,15.87
2018-04-18T11:28:52.185Z,16.27
2018-04-18T11:31:20.331Z,12.63
2018-04-18T11:33:48.486Z,16.13
2018-04-18T11:36:16.745Z,17.80
2018-04-18T11:38:44.872Z,19.13
2018-04-18T11:41:13.026Z,18.07
2018-04-18T11:43:41.146Z,18.33
2018-04-18T11:46:09.302Z,16.17
2018-04-18T11:48:37.438Z,18.70
2018-04-18T11:51:05.575Z,17.90
2018-04-18T11:53:33.729Z,16.37
2018-04-18T11:56:01.867Z,17.97
2018-04-18T11:58:31.912Z,22.80
2018-04-18T12:01:00.066Z,16.00
2018-04-18T12:03:28.199Z,23.60
2018-04-18T12:05:56.340Z,14.10
2018-04-18T12:08:24.510Z,19.30
2018-04-18T12:10:52.621Z,22.27
2018-04-18T12:13:20.768Z,18.63
2018-04-18T12:15:48.927Z,22.57
2018-04-18T12:18:17.068Z,19.13
2018-04-18T12:20:45.184Z,19.13
2018-04-18T12:23:13.362Z,22.10
2018-04-18T12:25:41.504Z,24.20
2018-04-18T12:28:09.632Z,20.37
2018-04-18T12:30:37.778Z,22.07
2018-04-18T12:33:05.938Z,23.07
2018-04-18T12:35:34.071Z,18.27
2018-04-18T12:38:02.217Z,20.77
2018-04-18T12:40:30.372Z,21.73
2018-04-18T12:42:58.512Z,16.10
2018-04-18T12:45:26.638Z,23.67
2018-04-18T12:47:54.766Z,27.23
2018-04-18T12:50:22.925Z,27.47
2018-04-18T12:52:51.076Z,23.80
2018-04-18T12:55:19.225Z,26.50
2018-04-18T12:57:47.354Z,18.00
2018-04-18T13:00:15.510Z,28.10
2018-04-18T13:02:43.641Z,23.77
2018-04-18T13:05:11.773Z,24.10
2018-04-18T13:07:40.111Z,23.60
2018-04-18T13:10:08.269Z,26.13
2018-04-18T13:12:36.387Z,21.77
2018-04-18T13:15:04.532Z,23.13
2018-04-18T13:17:32.663Z,19.77
2018-04-18T13:20:00.784Z,21.07
2018-04-18T13:22:28.964Z,26.63
2018-04-18T13:24:57.100Z,25.27
2018-04-18T13:27:25.221Z,21.30
2018-04-18T13:29:53.392Z,19.33
2018-04-18T13:32:21.526Z,22.63
2018-04-18T13:34:49.658Z,25.17
2018-04-18T13:37:17.819Z,23.47
2018-04-18T13:39:45.955Z,28.77
2018-04-18T13:42:14.087Z,19.87
2018-04-18T13:44:42.247Z,24.80
2018-04-18T13:47:10.377Z,26.87
2018-04-18T13:49:38.497Z,23.70
2018-04-18T13:52:06.665Z,21.63
2018-04-18T13:54:34.812Z,28.60
2018-04-18T13:57:02.932Z,21.37
2018-04-18T13:59:31.078Z,26.03
2018-04-18T14:01:59.201Z,32.37
2018-04-18T14:04:27.360Z,30.73
2018-04-18T14:06:55.497Z,26.73
2018-04-18T14:09:23.649Z,22.93
2018-04-18T14:11:51.779Z,21.40
2018-04-18T14:14:19.937Z,30.00
2018-04-18T14:16:48.066Z,30.13
2018-04-18T14:19:16.192Z,26.87
2018-04-18T14:21:44.374Z,22.27
2018-04-18T14:24:12.506Z,26.30
2018-04-18T14:26:40.708Z,28.00
2018-04-18T14:29:08.789Z,27.33
2018-04-18T14:31:36.926Z,28.50
2018-04-18T14:34:05.057Z,30.27
2018-04-18T14:36:33.227Z,31.57
2018-04-18T14:39:01.361Z,28.60
2018-04-18T14:41:29.514Z,22.90
2018-04-18T14:43:57.631Z,23.40
2018-04-18T14:46:25.765Z,24.17
2018-04-18T14:48:53.897Z,28.27
2018-04-18T14:51:22.210Z,25.53
2018-04-18T14:53:50.342Z,31.63
2018-04-18T14:56:18.498Z,20.70
2018-04-18T14:58:46.988Z,26.00
2018-04-18T15:01:15.501Z,25.50
2018-04-18T15:03:43.645Z,24.50
2018-04-18T15:06:11.797Z,26.57
2018-04-18T15:08:39.939Z,20.37
2018-04-18T15:11:08.091Z,26.73
2018-04-18T15:13:36.250Z,22.27
2018-04-18T15:16:05.301Z,17.97
2018-04-18T15:18:33.443Z,19.50
2018-04-18T15:21:01.600Z,22.93
2018-04-18T15:23:33.314Z,18.33
2018-04-18T15:26:01.453Z,20.80
2018-04-18T15:28:29.663Z,15.20
2018-04-18T15:30:57.736Z,22.10
2018-04-18T15:33:26.623Z,20.97
2018-04-18T15:35:54.756Z,19.13
2018-04-18T15:38:22.893Z,23.40
2018-04-18T15:40:51.028Z,22.67
2018-04-18T15:43:19.371Z,20.10
2018-04-18T15:45:47.524Z,14.87
2018-04-18T15:48:15.679Z,19.80
2018-04-18T15:50:43.824Z,17.87
2018-04-18T15:53:11.952Z,20.10
2018-04-18T15:55:40.097Z,20.20
2018-04-18T15:58:08.232Z,19.73
2018-04-18T16:00:36.484Z,19.17
2018-04-18T16:03:04.591Z,20.87
2018-04-18T16:05:32.749Z,18.47
2018-04-18T16:08:00.871Z,19.37
2018-04-18T16:10:29.008Z,18.47
2018-04-18T16:12:57.336Z,15.13
2018-04-18T16:15:25.451Z,14.77
2018-04-18T16:17:53.573Z,18.20
2018-04-18T16:20:21.712Z,15.97
2018-04-18T16:22:49.841Z,16.00
2018-04-18T16:25:17.992Z,13.30
2018-04-18T16:27:46.131Z,14.63
2018-04-18T16:30:26.002Z,13.60
2018-04-18T16:32:54.150Z,14.60
2018-04-18T16:35:22.300Z,14.37
2018-04-18T16:37:50.430Z,13.20
2018-04-18T16:40:18.589Z,19.37
2018-04-18T16:42:46.733Z,14.60
2018-04-18T16:45:14.858Z,11.03
2018-04-18T16:47:43.023Z,10.47
2018-04-18T16:50:11.158Z,16.00
2018-04-18T16:52:39.293Z,14.70
2018-04-18T16:55:07.441Z,12.90
2018-04-18T16:57:35.600Z,11.80
2018-04-18T17:00:03.741Z,11.80
2018-04-18T17:02:31.904Z,7.57
2018-04-18T17:05:03.261Z,12.07
2018-04-18T17:07:31.421Z,10.30
2018-04-18T17:09:59.563Z,11.93
2018-04-18T17:12:27.687Z,12.03
2018-04-18T17:14:55.807Z,10.83
2018-04-18T17:17:23.936Z,10.00
2018-04-18T17:19:52.102Z,10.67
2018-04-18T17:22:20.227Z,12.03
2018-04-18T17:24:48.389Z,13.50
2018-04-18T17:27:16.513Z,7.97
2018-04-18T17:29:44.639Z,9.23
2018-04-18T17:32:12.824Z,8.27
2018-04-18T17:34:40.931Z,7.37
2018-04-18T17:37:09.079Z,8.43
2018-04-18T17:39:37.222Z,9.27
2018-04-18T17:42:05.378Z,5.83
2018-04-18T17:44:33.509Z,6.13
2018-04-18T17:47:01.884Z,5.97
2018-04-18T17:49:30.012Z,11.43
2018-04-18T17:51:58.141Z,11.70
2018-04-18T17:54:26.292Z,11.87
2018-04-18T17:56:54.418Z,11.90
2018-04-18T17:59:22.550Z,10.33
2018-04-18T18:01:50.702Z,15.43
2018-04-18T18:04:18.817Z,14.90
2018-04-18T18:06:46.933Z,16.60
2018-04-18T18:09:15.091Z,10.07
2018-04-18T18:11:43.227Z,10.90
2018-04-18T18:14:11.363Z,12.03
2018-04-18T18:16:39.517Z,14.73
2018-04-18T18:19:07.665Z,13.93
2018-04-18T18:21:35.792Z,15.67
2018-04-18T18:24:03.922Z,17.97
2018-04-18T18:26:32.059Z,14.87
2018-04-18T18:29:00.189Z,21.43
2018-04-18T18:31:29.437Z,13.63
2018-04-18T18:34:00.828Z,15.93
2018-04-18T18:36:28.958Z,16.80
2018-04-18T18:38:57.111Z,15.40
2018-04-18T18:41:25.257Z,19.13
2018-04-18T18:43:53.395Z,15.43
2018-04-18T18:46:21.555Z,17.20
2018-04-18T18:48:49.686Z,15.83
2018-04-18T18:51:17.828Z,17.17
2018-04-18T18:53:45.957Z,14.33
2018-04-18T18:56:14.080Z,19.03
2018-04-18T18:58:42.232Z,14.57
2018-04-18T19:01:10.402Z,16.97
2018-04-18T19:03:41.595Z,14.67
2018-04-18T19:06:09.729Z,18.57
2018-04-18T19:08:37.890Z,14.30
2018-04-18T19:11:06.027Z,13.43
2018-04-18T19:13:34.167Z,19.37
2018-04-18T19:16:02.337Z,12.43
2018-04-18T19:18:30.452Z,16.37
2018-04-18T19:20:58.609Z,16.50
2018-04-18T19:23:26.756Z,16.70
2018-04-18T19:25:54.891Z,18.70
2018-04-18T19:28:23.116Z,17.87
2018-04-18T19:30:51.181Z,17.27
2018-04-18T19:33:19.317Z,18.23
2018-04-18T19:35:47.447Z,16.43
2018-04-18T19:38:15.576Z,17.97
2018-04-18T19:40:43.721Z,18.20
2018-04-18T19:43:11.866Z,16.47
2018-04-18T19:45:40.006Z,17.83
2018-04-18T19:48:08.130Z,20.27
2018-04-18T19:50:36.252Z,17.10
2018-04-18T19:53:04.445Z,17.23
2018-04-18T19:55:32.585Z,21.67
2018-04-18T19:58:00.724Z,20.13
2018-04-18T20:00:28.872Z,21.23
2018-04-18T20:02:57.149Z,17.37
2018-04-18T20:05:25.261Z,17.93
2018-04-18T20:07:53.398Z,15.77
2018-04-18T20:10:21.540Z,15.70
2018-04-18T20:12:49.652Z,18.27
2018-04-18T20:15:17.785Z,18.83
2018-04-18T20:17:45.922Z,17.90
2018-04-18T20:20:14.062Z,23.40
2018-04-18T20:22:42.199Z,15.20
2018-04-18T20:25:10.326Z,18.17
2018-04-18T20:27:38.472Z,16.37
2018-04-18T20:30:06.768Z,16.20
2018-04-18T20:32:38.532Z,17.67
2018-04-18T20:35:06.696Z,20.27
2018-04-18T20:37:34.853Z,20.57
2018-04-18T20:40:02.982Z,23.23
2018-04-18T20:42:31.131Z,19.57
2018-04-18T20:44:59.280Z,23.70
2018-04-18T20:47:27.418Z,19.80
2018-04-18T20:49:55.568Z,21.87
2018-04-18T20:52:23.720Z,23.47
2018-04-18T20:54:51.845Z,19.60
2018-04-18T20:57:19.979Z,24.23
2018-04-18T20:59:48.859Z,25.30
2018-04-18T21:02:16.996Z,28.50
2018-04-18T21:04:45.128Z,21.67
2018-04-18T21:07:15.280Z,20.07
2018-04-18T21:09:43.433Z,20.90
2018-04-18T21:12:11.656Z,23.00
2018-04-18T21:14:39.804Z,21.60
2018-04-18T21:17:07.928Z,25.30
2018-04-18T21:19:36.086Z,19.47
2018-04-18T21:22:04.270Z,19.67
2018-04-18T21:24:32.517Z,20.67
2018-04-18T21:27:00.670Z,23.57
2018-04-18T21:29:28.827Z,17.30
2018-04-18T21:31:57.079Z,19.30
2018-04-18T21:34:25.313Z,23.73
2018-04-18T21:36:53.486Z,24.20
2018-04-18T21:39:21.684Z,24.10
2018-04-18T21:41:49.871Z,18.53
2018-04-18T21:44:18.005Z,20.50
2018-04-18T21:46:46.172Z,21.93
2018-04-18T21:49:14.408Z,22.10
2018-04-18T21:51:42.704Z,20.43
2018-04-18T21:54:10.838Z,18.30
2018-04-18T21:56:38.956Z,19.90
2018-04-18T21:59:07.125Z,18.73
2018-04-18T22:07:34.740Z,18.30
2018-04-18T22:10:20.463Z,19.97
2018-04-18T22:12:48.602Z,23.43
2018-04-18T22:15:16.752Z,18.20
2018-04-18T22:17:44.917Z,18.60
2018-04-18T22:20:13.049Z,21.60
2018-04-18T22:22:41.183Z,18.23
2018-04-18T22:25:09.333Z,19.07
2018-04-18T22:27:40.491Z,17.50
2018-04-18T22:30:20.316Z,19.13
2018-04-18T22:32:48.432Z,20.77
2018-04-18T22:35:16.590Z,21.13
2018-04-18T22:37:44.728Z,17.03
2018-04-18T22:40:12.852Z,20.33
2018-04-18T22:42:40.997Z,15.40
2018-04-18T22:45:09.124Z,16.07
2018-04-18T22:47:37.272Z,18.17
2018-04-18T22:50:05.409Z,18.10
2018-04-18T22:52:33.569Z,14.77
2018-04-18T22:55:01.700Z,15.37
2018-04-18T22:57:29.834Z,17.87
2018-04-18T22:59:57.978Z,16.87
2018-04-18T23:02:26.129Z,17.00
2018-04-18T23:04:54.256Z,22.20
2018-04-18T23:07:22.394Z,16.10
2018-04-18T23:09:50.510Z,18.00
2018-04-18T23:12:18.627Z,17.00
2018-04-18T23:14:46.780Z,16.23
2018-04-18T23:17:14.982Z,15.97
2018-04-18T23:19:43.103Z,18.23
2018-04-18T23:22:11.259Z,16.23
2018-04-18T23:24:39.380Z,16.80
2018-04-18T23:27:07.500Z,16.50
2018-04-18T23:29:35.678Z,17.63
2018-04-18T23:32:03.804Z,16.00
2018-04-18T23:34:31.934Z,17.97
2018-04-18T23:37:00.089Z,16.00
2018-04-18T23:39:28.230Z,18.57
2018-04-18T23:41:56.388Z,16.50
2018-04-18T23:44:24.509Z,16.67
2018-04-18T23:46:52.645Z,15.50
2018-04-18T23:49:20.779Z,18.03
2018-04-18T23:51:48.918Z,14.40
2018-04-18T23:54:17.033Z,16.80
2018-04-18T23:56:45.173Z,15.00
2018-04-18T23:59:13.341Z,18.40
